createdAt,value
2024-04-14T00:02:36.650Z,14.09
2024-04-14T00:05:08.442Z,14.18
2024-04-14T00:08:04.944Z,14.15
2024-04-14T00:10:51.310Z,14.12
2024-04-14T00:13:28.995Z,14.11
2024-04-14T00:16:05.723Z,14.09
2024-04-14T00:18:45.103Z,14.08
2024-04-14T00:21:24.002Z,14.07
2024-04-14T00:23:59.669Z,14.06
2024-04-14T00:26:28.837Z,14.06
2024-04-14T00:29:33.478Z,14.06
2024-04-14T00:32:03.692Z,14.05
2024-04-14T00:34:30.272Z,14.05
2024-04-14T00:37:02.632Z,14.05
2024-04-14T00:39:37.494Z,14.04
2024-04-14T00:42:19.170Z,13.96
2024-04-14T00:45:10.558Z,14.03
2024-04-14T00:47:44.022Z,14.01
2024-04-14T00:50:17.900Z,13.99
2024-04-14T00:52:47.863Z,13.97
2024-04-14T00:55:41.140Z,13.99
2024-04-14T00:58:18.800Z,13.98
2024-04-14T01:00:59.200Z,13.90
2024-04-14T01:03:30.824Z,13.99
2024-04-14T01:06:02.644Z,13.97
2024-04-14T01:08:32.671Z,14.02
2024-04-14T01:11:37.995Z,14.05
2024-04-14T01:14:01.983Z,14.08
2024-04-14T01:17:15.694Z,14.10
2024-04-14T01:19:36.293Z,14.14
2024-04-14T01:22:05.835Z,14.18
2024-04-14T01:24:48.146Z,14.22
2024-04-14T01:27:43.716Z,14.13
2024-04-14T01:30:21.243Z,14.26
2024-04-14T01:32:57.673Z,14.29
2024-04-14T01:35:53.137Z,14.30
2024-04-14T01:38:32.652Z,14.30
2024-04-14T01:41:03.414Z,14.28
2024-04-14T01:43:51.685Z,14.26
2024-04-14T01:46:32.864Z,14.23
2024-04-14T01:49:03.484Z,14.23
2024-04-14T01:51:36.651Z,14.21
2024-04-14T01:54:27.143Z,14.19
2024-04-14T01:57:01.954Z,14.17
2024-04-14T01:59:53.672Z,14.09
2024-04-14T02:02:31.900Z,14.13
2024-04-14T02:05:07.790Z,14.09
2024-04-14T02:08:03.044Z,14.09
2024-04-14T02:10:42.885Z,14.09
2024-04-14T02:13:25.678Z,14.08
2024-04-14T02:16:13.155Z,14.04
2024-04-14T02:20:03.624Z,14.06
2024-04-14T02:21:55.202Z,14.07
2024-04-14T02:24:37.636Z,14.06
2024-04-14T02:27:21.443Z,14.05
2024-04-14T02:30:04.519Z,14.05
2024-04-14T02:32:39.122Z,14.05
2024-04-14T02:35:09.895Z,14.03
2024-04-14T02:37:49.855Z,14.02
2024-04-14T02:40:27.061Z,14.01
2024-04-14T02:42:55.837Z,14.00
2024-04-14T02:45:34.457Z,14.01
2024-04-14T02:48:09.608Z,14.01
2024-04-14T02:50:46.339Z,14.02
2024-04-14T02:54:26.920Z,14.02
2024-04-14T02:56:07.388Z,14.01
2024-04-14T02:58:54.980Z,14.01
2024-04-14T03:01:36.563Z,14.01
2024-04-14T03:04:22.411Z,14.02
2024-04-14T03:07:25.314Z,14.04
2024-04-14T03:10:16.441Z,13.95
2024-04-14T03:13:06.521Z,14.08
2024-04-14T03:15:37.560Z,14.10
2024-04-14T03:18:13.968Z,14.13
2024-04-14T03:20:46.808Z,14.14
2024-04-14T03:23:31.574Z,14.22
2024-04-14T03:26:43.816Z,14.24
2024-04-14T03:29:48.612Z,14.29
2024-04-14T03:32:19.617Z,14.34
2024-04-14T03:34:53.556Z,14.36
2024-04-14T03:38:02.357Z,14.38
2024-04-14T03:40:40.537Z,14.32
2024-04-14T03:43:35.850Z,14.36
2024-04-14T03:46:35.383Z,14.40
2024-04-14T03:49:07.299Z,14.41
2024-04-14T03:52:04.401Z,14.39
2024-04-14T03:54:53.817Z,14.44
2024-04-14T03:57:41.326Z,14.46
2024-04-14T04:00:37.161Z,14.47
2024-04-14T04:03:15.797Z,14.49
2024-04-14T04:06:02.720Z,14.50
2024-04-14T04:08:46.314Z,14.53
2024-04-14T04:11:23.335Z,14.53
2024-04-14T04:14:02.447Z,14.57
2024-04-14T04:16:52.241Z,14.59
2024-04-14T04:20:22.624Z,14.60
2024-04-14T04:23:08.920Z,14.61
2024-04-14T04:25:33.771Z,14.63
2024-04-14T04:28:15.663Z,14.57
2024-04-14T04:30:58.267Z,14.67
2024-04-14T04:33:34.906Z,14.69
2024-04-14T04:36:09.492Z,14.72
2024-04-14T04:39:08.062Z,14.75
2024-04-14T04:41:52.792Z,14.77
2024-04-14T04:44:41.208Z,14.80
2024-04-14T04:47:21.065Z,14.82
2024-04-14T04:50:28.651Z,14.84
2024-04-14T04:52:58.883Z,14.79
2024-04-14T04:55:32.440Z,14.93
2024-04-14T04:58:49.543Z,14.98
2024-04-14T05:01:22.899Z,14.92
2024-04-14T05:04:40.789Z,14.95
2024-04-14T05:07:27.349Z,15.12
2024-04-14T05:10:21.113Z,15.17
2024-04-14T05:13:09.162Z,15.22
2024-04-14T05:16:05.590Z,15.28
2024-04-14T05:18:56.542Z,15.33
2024-04-14T05:22:15.402Z,15.39
2024-04-14T05:25:08.192Z,15.46
2024-04-14T05:27:45.395Z,15.53
2024-04-14T05:30:35.424Z,15.60
2024-04-14T05:33:26.063Z,15.67
2024-04-14T05:36:21.775Z,15.74
2024-04-14T05:39:18.069Z,15.82
2024-04-14T05:42:06.469Z,15.89
2024-04-14T05:44:49.691Z,15.85
2024-04-14T05:47:37.137Z,15.87
2024-04-14T05:51:12.621Z,16.10
2024-04-14T05:53:44.626Z,16.18
2024-04-14T05:56:37.028Z,16.26
2024-04-14T05:59:36.075Z,16.32
2024-04-14T06:02:11.323Z,16.40
2024-04-14T06:04:53.367Z,16.45
2024-04-14T06:07:25.182Z,16.52
2024-04-14T06:10:07.402Z,16.49
2024-04-14T06:13:13.427Z,16.65
2024-04-14T06:15:41.576Z,16.71
2024-04-14T06:18:11.647Z,16.77
2024-04-14T06:20:55.564Z,16.85
2024-04-14T06:23:49.857Z,16.90
2024-04-14T06:29:43.854Z,17.17
2024-04-14T06:32:34.920Z,17.30
2024-04-14T06:35:08.016Z,17.42
2024-04-14T06:37:57.141Z,17.51
2024-04-14T06:40:33.400Z,17.63
2024-04-14T06:43:08.376Z,17.73
2024-04-14T06:45:57.997Z,17.82
2024-04-14T06:48:45.238Z,17.88
2024-04-14T06:51:28.828Z,18.00
2024-04-14T06:54:25.848Z,18.08
2024-04-14T06:57:26.883Z,18.18
2024-04-14T07:00:15.602Z,18.28
2024-04-14T07:03:16.070Z,18.38
2024-04-14T07:05:56.932Z,18.47
2024-04-14T07:08:49.281Z,18.57
2024-04-14T07:11:20.452Z,18.66
2024-04-14T07:14:06.183Z,18.73
2024-04-14T07:16:46.432Z,18.84
2024-04-14T07:19:21.003Z,18.91
2024-04-14T07:22:59.281Z,19.02
2024-04-14T07:25:30.940Z,19.13
2024-04-14T07:28:02.465Z,19.25
2024-04-14T07:31:01.922Z,19.33
2024-04-14T07:34:17.541Z,19.43
2024-04-14T07:36:47.660Z,19.52
2024-04-14T07:40:25.238Z,19.60
2024-04-14T07:46:02.043Z,19.72
2024-04-14T07:46:20.199Z,19.83
2024-04-14T07:48:50.602Z,19.94
2024-04-14T07:51:29.757Z,20.02
2024-04-14T07:54:04.398Z,20.07
2024-04-14T07:56:45.163Z,20.11
2024-04-14T07:59:29.543Z,20.14
2024-04-14T08:02:00.555Z,20.17
2024-04-14T08:04:35.977Z,20.25
2024-04-14T08:07:14.204Z,20.34
2024-04-14T08:09:57.080Z,20.41
2024-04-14T08:12:31.361Z,20.46
2024-04-14T08:14:58.381Z,20.53
2024-04-14T08:17:47.126Z,20.54
2024-04-14T08:20:16.230Z,20.57
2024-04-14T08:22:45.413Z,20.53
2024-04-14T08:25:23.789Z,20.62
2024-04-14T08:27:52.539Z,20.63
2024-04-14T08:30:37.050Z,20.65
2024-04-14T08:33:10.191Z,20.64
2024-04-14T08:35:47.363Z,20.76
2024-04-14T08:38:23.165Z,20.82
2024-04-14T08:41:06.375Z,20.91
2024-04-14T08:43:58.266Z,21.02
2024-04-14T08:46:38.824Z,21.09
2024-04-14T08:49:10.350Z,21.13
2024-04-14T08:51:53.862Z,21.17
2024-04-14T08:54:53.294Z,21.23
2024-04-14T08:57:53.915Z,21.17
2024-04-14T09:01:58.797Z,21.43
2024-04-14T09:04:37.936Z,21.56
2024-04-14T09:07:20.650Z,21.61
2024-04-14T09:10:09.537Z,21.54
2024-04-14T09:13:02.872Z,21.64
2024-04-14T09:15:50.148Z,21.67
2024-04-14T09:18:33.643Z,21.70
2024-04-14T09:21:27.502Z,21.76
2024-04-14T09:24:38.549Z,21.90
2024-04-14T09:27:29.857Z,21.98
2024-04-14T09:30:19.365Z,22.05
2024-04-14T09:33:40.416Z,22.19
2024-04-14T09:36:44.478Z,22.27
2024-04-14T09:39:55.910Z,22.30
2024-04-14T09:42:41.002Z,22.31
2024-04-14T09:45:26.782Z,22.30
2024-04-14T09:48:03.386Z,22.29
2024-04-14T09:50:57.794Z,22.19
2024-04-14T09:53:44.934Z,22.09
2024-04-14T09:56:28.843Z,22.02
2024-04-14T09:59:02.583Z,21.99
2024-04-14T10:02:02.999Z,22.01
2024-04-14T10:08:09.261Z,22.11
2024-04-14T10:11:28.270Z,22.18
2024-04-14T10:14:17.847Z,22.19
2024-04-14T10:17:01.770Z,22.18
2024-04-14T10:21:11.999Z,22.21
2024-04-14T10:23:31.568Z,22.13
2024-04-14T10:26:47.553Z,22.24
2024-04-14T10:29:52.605Z,22.23
2024-04-14T10:32:38.155Z,22.29
2024-04-14T10:35:19.427Z,22.30
2024-04-14T10:37:56.619Z,22.32
2024-04-14T10:41:00.058Z,22.40
2024-04-14T10:43:46.707Z,22.41
2024-04-14T10:53:59.284Z,22.18
2024-04-14T10:56:26.555Z,22.17
2024-04-14T10:58:53.127Z,22.14
2024-04-14T11:01:19.666Z,22.12
2024-04-14T11:03:47.705Z,22.13
2024-04-14T11:06:14.722Z,22.18
2024-04-14T11:08:41.727Z,22.24
2024-04-14T11:11:09.565Z,22.29
2024-04-14T11:13:36.121Z,22.33
2024-04-14T11:16:04.066Z,22.35
2024-04-14T11:18:30.927Z,22.35
2024-04-14T11:20:58.117Z,22.39
2024-04-14T11:23:24.947Z,22.40
2024-04-14T11:25:51.666Z,22.46
2024-04-14T11:28:20.750Z,22.47
2024-04-14T11:30:47.503Z,22.46
2024-04-14T11:33:14.599Z,22.45
2024-04-14T11:35:41.184Z,22.44
2024-04-14T11:38:07.808Z,22.41
2024-04-14T11:40:34.641Z,22.40
2024-04-14T11:43:01.031Z,22.41
2024-04-14T11:45:27.421Z,22.41
2024-04-14T11:47:54.012Z,22.40
2024-04-14T11:50:21.540Z,22.42
2024-04-14T11:52:49.152Z,22.42
2024-04-14T11:55:16.438Z,22.47
2024-04-14T11:57:42.873Z,22.52
2024-04-14T12:00:09.702Z,22.49
2024-04-14T12:02:43.037Z,22.44
2024-04-14T12:05:09.478Z,22.53
2024-04-14T12:07:36.609Z,22.58
2024-04-14T12:10:03.491Z,22.66
2024-04-14T12:12:31.777Z,22.71
2024-04-14T12:14:58.139Z,22.71
2024-04-14T12:17:24.794Z,22.69
2024-04-14T12:19:51.709Z,22.67
2024-04-14T12:22:18.673Z,22.65
2024-04-14T12:24:45.625Z,22.66
2024-04-14T12:27:12.063Z,22.69
2024-04-14T12:29:40.570Z,22.77
2024-04-14T12:32:08.126Z,22.79
2024-04-14T12:34:35.195Z,22.87
2024-04-14T12:37:02.106Z,22.79
2024-04-14T12:39:31.889Z,22.71
2024-04-14T12:42:01.409Z,22.70
2024-04-14T12:44:27.911Z,22.73
2024-04-14T12:46:54.596Z,22.78
2024-04-14T12:49:26.591Z,22.77
2024-04-14T12:52:00.869Z,22.78
2024-04-14T12:54:27.710Z,22.75
2024-04-14T12:56:54.187Z,22.78
2024-04-14T12:59:20.792Z,22.79
2024-04-14T13:01:47.488Z,22.88
2024-04-14T13:04:14.161Z,22.84
2024-04-14T13:06:40.854Z,22.74
2024-04-14T13:09:07.291Z,22.58
2024-04-14T13:11:33.732Z,22.53
2024-04-14T13:14:00.165Z,22.58
2024-04-14T13:16:26.645Z,22.66
2024-04-14T13:18:54.708Z,22.59
2024-04-14T13:21:21.231Z,22.52
2024-04-14T13:23:48.531Z,22.40
2024-04-14T13:26:15.466Z,22.39
2024-04-14T13:29:07.149Z,22.39
2024-04-14T13:31:33.693Z,22.44
2024-04-14T13:34:00.170Z,22.48
2024-04-14T13:36:26.624Z,22.47
2024-04-14T13:38:52.926Z,22.46
2024-04-14T13:41:21.151Z,22.37
2024-04-14T13:43:51.132Z,22.21
2024-04-14T13:46:17.754Z,22.13
2024-04-14T13:48:45.261Z,22.14
2024-04-14T13:51:12.836Z,22.20
2024-04-14T13:53:42.548Z,22.39
2024-04-14T13:56:08.892Z,22.63
2024-04-14T13:58:35.849Z,22.92
2024-04-14T14:01:02.494Z,23.11
2024-04-14T14:03:30.064Z,23.26
2024-04-14T14:05:58.871Z,23.36
2024-04-14T14:08:28.878Z,23.39
2024-04-14T14:10:55.621Z,23.46
2024-04-14T14:13:27.676Z,23.40
2024-04-14T14:15:57.234Z,23.25
2024-04-14T14:18:25.061Z,23.09
2024-04-14T14:20:52.795Z,23.01
2024-04-14T14:23:19.540Z,22.99
2024-04-14T14:25:46.097Z,23.04
2024-04-14T14:28:13.388Z,23.10
2024-04-14T14:30:40.874Z,23.11
2024-04-14T14:33:33.582Z,23.04
2024-04-14T14:36:18.819Z,22.99
2024-04-14T14:38:45.331Z,22.94
2024-04-14T14:41:11.760Z,23.02
2024-04-14T14:43:38.217Z,22.99
2024-04-14T14:46:04.841Z,22.90
2024-04-14T14:48:32.161Z,22.81
2024-04-14T14:51:01.173Z,22.71
2024-04-14T14:53:30.128Z,22.72
2024-04-14T14:55:56.635Z,22.71
2024-04-14T14:58:24.336Z,22.78
2024-04-14T15:00:53.540Z,22.87
2024-04-14T15:03:20.627Z,22.94
2024-04-14T15:05:47.023Z,23.01
2024-04-14T15:08:15.347Z,23.17
2024-04-14T15:10:46.712Z,23.38
2024-04-14T15:13:17.770Z,23.52
2024-04-14T15:16:00.923Z,23.55
2024-04-14T15:18:27.876Z,23.62
2024-04-14T15:20:54.197Z,23.71
2024-04-14T15:23:22.004Z,23.69
2024-04-14T15:25:48.384Z,23.54
2024-04-14T15:28:25.410Z,23.32
2024-04-14T15:30:57.866Z,23.20
2024-04-14T15:33:24.835Z,23.25
2024-04-14T15:35:51.151Z,23.38
2024-04-14T15:38:21.033Z,23.50
2024-04-14T15:40:51.977Z,23.59
2024-04-14T15:43:18.318Z,23.72
2024-04-14T15:45:45.011Z,23.72
2024-04-14T15:48:11.894Z,23.78
2024-04-14T15:50:39.085Z,23.60
2024-04-14T15:53:08.434Z,23.27
2024-04-14T15:55:38.667Z,22.88
2024-04-14T15:58:07.920Z,22.46
2024-04-14T16:00:34.885Z,22.11
2024-04-14T16:03:02.083Z,21.86
2024-04-14T16:05:28.797Z,21.68
2024-04-14T16:07:58.284Z,21.55
2024-04-14T16:10:28.234Z,21.40
2024-04-14T16:12:54.735Z,21.28
2024-04-14T16:15:21.069Z,21.14
2024-04-14T16:17:47.610Z,21.03
2024-04-14T16:20:14.223Z,20.92
2024-04-14T16:22:40.561Z,20.89
2024-04-14T16:25:09.226Z,20.83
2024-04-14T16:27:35.762Z,20.73
2024-04-14T16:30:02.113Z,20.67
2024-04-14T16:32:30.648Z,20.73
2024-04-14T16:34:57.928Z,20.71
2024-04-14T16:37:25.108Z,20.77
2024-04-14T16:39:51.929Z,20.78
2024-04-14T16:42:18.557Z,20.90
2024-04-14T16:44:44.899Z,21.07
2024-04-14T16:47:11.554Z,21.23
2024-04-14T16:49:43.537Z,21.38
2024-04-14T16:52:10.084Z,21.52
2024-04-14T16:54:36.794Z,21.64
2024-04-14T16:57:04.104Z,21.70
2024-04-14T16:59:31.051Z,21.73
2024-04-14T17:01:57.399Z,21.75
2024-04-14T17:04:26.247Z,21.61
2024-04-14T17:06:56.098Z,21.40
2024-04-14T17:09:23.104Z,21.15
2024-04-14T17:11:59.207Z,20.83
2024-04-14T17:14:26.195Z,20.49
2024-04-14T17:16:52.751Z,20.15
2024-04-14T17:19:19.326Z,19.84
2024-04-14T17:21:46.152Z,19.60
2024-04-14T17:24:12.539Z,19.35
2024-04-14T17:26:39.038Z,19.11
2024-04-14T17:29:07.287Z,18.91
2024-04-14T17:31:35.360Z,18.72
2024-04-14T17:34:04.816Z,18.51
2024-04-14T17:36:31.445Z,18.34
2024-04-14T17:38:57.818Z,18.16
2024-04-14T17:41:24.723Z,17.98
2024-04-14T17:43:54.579Z,17.80
2024-04-14T17:46:20.903Z,17.64
2024-04-14T17:48:47.366Z,17.50
2024-04-14T17:51:13.847Z,17.37
2024-04-14T17:53:43.059Z,17.25
2024-04-14T17:56:10.898Z,17.11
2024-04-14T17:58:38.467Z,17.01
2024-04-14T18:01:05.121Z,16.91
2024-04-14T18:03:32.729Z,16.79
2024-04-14T18:05:59.348Z,16.68
2024-04-14T18:08:25.698Z,16.56
2024-04-14T18:10:52.421Z,16.45
2024-04-14T18:13:18.935Z,16.34
2024-04-14T18:15:45.245Z,16.23
2024-04-14T18:18:11.813Z,16.12
2024-04-14T18:20:38.467Z,16.03
2024-04-14T18:23:06.006Z,15.92
2024-04-14T18:25:34.568Z,15.83
2024-04-14T18:28:01.164Z,15.73
2024-04-14T18:30:28.214Z,15.65
2024-04-14T18:32:55.781Z,15.57
2024-04-14T18:35:22.259Z,15.48
2024-04-14T18:37:48.538Z,15.40
2024-04-14T18:40:15.113Z,15.32
2024-04-14T18:42:42.056Z,15.25
2024-04-14T18:45:08.369Z,15.16
2024-04-14T18:47:36.716Z,15.10
2024-04-14T18:50:03.174Z,15.04
2024-04-14T18:52:31.735Z,14.97
2024-04-14T18:54:58.071Z,14.89
2024-04-14T18:57:24.824Z,14.82
2024-04-14T18:59:51.106Z,14.74
2024-04-14T19:02:19.098Z,14.66
2024-04-14T19:04:46.712Z,14.59
2024-04-14T19:07:13.050Z,14.52
2024-04-14T19:09:40.836Z,14.45
2024-04-14T19:12:10.707Z,14.39
2024-04-14T19:14:37.883Z,14.33
2024-04-14T19:17:04.327Z,14.26
2024-04-14T19:19:30.814Z,14.22
2024-04-14T19:21:57.216Z,14.15
2024-04-14T19:24:23.536Z,14.10
2024-04-14T19:26:49.862Z,14.04
2024-04-14T19:29:16.281Z,13.99
2024-04-14T19:31:45.340Z,13.94
2024-04-14T19:34:12.564Z,13.90
2024-04-14T19:36:39.016Z,13.85
2024-04-14T19:39:05.361Z,13.80
2024-04-14T19:41:33.279Z,13.74
2024-04-14T19:44:04.722Z,13.68
2024-04-14T19:46:31.004Z,13.61
2024-04-14T19:48:57.570Z,13.56
2024-04-14T19:51:25.925Z,13.50
2024-04-14T19:53:52.236Z,13.44
2024-04-14T19:56:18.837Z,13.39
2024-04-14T19:58:45.191Z,13.33
2024-04-14T20:01:11.548Z,13.28
2024-04-14T20:03:38.035Z,13.23
2024-04-14T20:06:04.537Z,13.18
2024-04-14T20:08:30.986Z,13.12
2024-04-14T20:10:57.473Z,13.07
2024-04-14T20:13:23.889Z,13.03
2024-04-14T20:15:50.366Z,12.99
2024-04-14T20:18:16.791Z,12.94
2024-04-14T20:20:46.065Z,12.90
2024-04-14T20:23:13.887Z,12.85
2024-04-14T20:25:40.405Z,12.81
2024-04-14T20:28:06.738Z,12.76
2024-04-14T20:30:33.110Z,12.71
2024-04-14T20:32:59.611Z,12.67
2024-04-14T20:35:26.032Z,12.63
2024-04-14T20:37:52.517Z,12.61
2024-04-14T20:40:19.328Z,12.55
2024-04-14T20:42:45.639Z,12.54
2024-04-14T20:45:12.392Z,12.49
2024-04-14T20:47:39.241Z,12.45
2024-04-14T20:50:06.052Z,12.41
2024-04-14T20:52:34.201Z,12.38
2024-04-14T20:55:03.420Z,12.34
2024-04-14T20:57:30.314Z,12.31
2024-04-14T20:59:57.390Z,12.26
2024-04-14T21:02:23.821Z,12.21
2024-04-14T21:04:51.768Z,12.17
2024-04-14T21:07:18.905Z,12.14
2024-04-14T21:09:46.069Z,12.10
2024-04-14T21:12:15.108Z,12.06
2024-04-14T21:14:42.151Z,12.02
2024-04-14T21:17:09.020Z,11.96
2024-04-14T21:19:35.313Z,11.92
2024-04-14T21:22:01.860Z,11.88
2024-04-14T21:24:28.242Z,11.83
2024-04-14T21:26:54.550Z,11.79
2024-04-14T21:29:21.157Z,11.75
2024-04-14T21:31:47.532Z,11.72
2024-04-14T21:34:15.764Z,11.68
2024-04-14T21:36:44.526Z,11.64
2024-04-14T21:39:10.868Z,11.61
2024-04-14T21:41:37.237Z,11.58
2024-04-14T21:44:03.983Z,11.56
2024-04-14T21:46:30.368Z,11.54
2024-04-14T21:48:56.626Z,11.55
2024-04-14T21:51:23.972Z,11.55
2024-04-14T21:53:51.697Z,11.57
2024-04-14T21:56:18.059Z,11.59
2024-04-14T21:58:44.542Z,11.62
2024-04-14T22:01:11.602Z,11.64
2024-04-14T22:03:38.119Z,11.65
2024-04-14T22:06:04.639Z,11.64
2024-04-14T22:08:30.966Z,11.64
2024-04-14T22:10:59.899Z,11.62
2024-04-14T22:13:31.615Z,11.59
2024-04-14T22:15:57.963Z,11.57
2024-04-14T22:18:24.414Z,11.54
2024-04-14T22:20:50.857Z,11.50
2024-04-14T22:23:17.151Z,11.48
2024-04-14T22:25:45.841Z,11.45
2024-04-14T22:28:12.453Z,11.42
2024-04-14T22:30:39.059Z,11.37
2024-04-14T22:33:08.038Z,11.33
2024-04-14T22:35:34.996Z,11.30
2024-04-14T22:38:01.752Z,11.25
2024-04-14T22:40:28.241Z,11.21
2024-04-14T22:42:54.878Z,11.17
2024-04-14T22:45:21.378Z,11.12
2024-04-14T22:47:47.804Z,11.11
2024-04-14T22:50:14.769Z,11.12
2024-04-14T22:52:42.682Z,11.12
2024-04-14T22:55:12.328Z,11.15
2024-04-14T22:57:38.705Z,11.19
2024-04-14T23:00:07.919Z,11.21
2024-04-14T23:02:34.629Z,11.23
2024-04-14T23:05:01.176Z,11.25
2024-04-14T23:07:27.518Z,11.28
2024-04-14T23:09:54.226Z,11.29
2024-04-14T23:12:20.797Z,11.31
2024-04-14T23:14:49.484Z,11.33
2024-04-14T23:17:16.188Z,11.35
2024-04-14T23:19:42.844Z,11.35
2024-04-14T23:22:09.268Z,11.34
2024-04-14T23:24:35.819Z,11.32
2024-04-14T23:27:02.149Z,11.30
2024-04-14T23:29:28.653Z,11.28
2024-04-14T23:31:54.985Z,11.28
2024-04-14T23:34:22.606Z,11.26
2024-04-14T23:36:53.651Z,11.25
2024-04-14T23:39:20.591Z,11.24
2024-04-14T23:41:47.429Z,11.23
2024-04-14T23:44:14.181Z,11.22
2024-04-14T23:46:40.675Z,11.21
2024-04-14T23:49:07.691Z,11.19
2024-04-14T23:51:34.217Z,11.18
2024-04-14T23:54:02.826Z,11.16
2024-04-14T23:56:29.257Z,11.14
2024-04-14T23:58:55.568Z,11.13
